Bhubaneshwar Airport
VEBS : now visible

Airfield :











YOU CAN JOIN US ON...

 
LOGIN :

Register | Disclaimer

   EN    FR    IT 

 









Legend :    VFR   Marginal VFR   IFR   Intensive IFR   Very Intensive IFR
Visi :
Ceiling :
>= 8 km
>= 3000ft
5 to 8 km
1000 to 3000 ft
1500m to 5 km
500 to 1000 ft
800 to 1500m
200 to 500 ft
< 800m
< 200 ft
Symbols :   Thunderstorms  Fog  Heavy snow  Heavy precipitations  Wind > 20 kt






- Airport Elevation : 138 ft
- IATA code : BBI


VEBS - Bhubaneshwar

CURRENT METAR :
  • 050700Z 18012KT 5000 HZ SCT018 SCT100 35/27 Q1004 NOSIG

EXPIRED METARs :
  • 050630Z 18013KT 5000 HZ SCT018 SCT100 34/28 Q1004 NOSIG
  • 050600Z 17013KT 5000 HZ SCT018 SCT100 34/28 Q1005 NOSIG
  • 050530Z 17013KT 5000 HZ SCT018 SCT100 34/28 Q1005 NOSIG
  • 050500Z 18014KT 5000 HZ BKN018 SCT100 33/28 Q1005 NOSIG
  • 050430Z 18015KT 5000 HZ BKN018 SCT100 33/28 Q1005 NOSIG

TAF TAF VEBS
Valid from the 05 at 06:00 until the 05 at 15:00 UTC


050500Z 0506/0515 18015KT 5000 HZ SCT018 SCT090
TEMPO 0510/0514 2000 -TSRA BKN015 FEW030CB OVC080
VECF FIR / Asia



MET'MAP, your aeronautical weather chart ! - Copyright ORBIFLY December 2007 - Disclaimer

ORBIFLY MET'MAP TEAM :

Programming & Development : Alexandra Zaïnal
Concept & original design : Baudouin d'Aumeries
Assistance for programming : Marc-Olivier Méhu
Technical & hardware support : Manuel Goepfert

Contact : metmap@orbifly.com




SOURCES & CREDITS :

   NOAA       Earth
Advisory